Monteiro, Brazil
Current Conditions -  °F | °C
As of 6:00 PM on Tuesday 27 Jan 2015 (Local Time) from SBKG Reporting Station
Clear Clear  
Wind Chill: 81°   Ceiling: Unl
Heat Index: 82°   Visibility: 6mi
Dew Point: 64°   Wind: 16mph
Humidity: 58%   Direction: 90°E
Pressure: 29.94"   Gusts: NA
Location:  7.89°S, 37.12°W
Report Text: SBKG 272100Z 09014KT CAVOK 27/18 Q1014
Loading
Personal Weather Stations






























Interactive Weather Map New forecast layout! Learn more

10-Day Weather Forecast

Advertisements
Track Severe Weather on mobile